Time;durP1;ratioP1;P1;durP2;ratioP2;P2;SDS_P1;SDS_P2;PMS_P1;PMS_P2;Temp;Humidity;BMP_temperature;BMP_pressure;BME280_temperature;BME280_humidity;BME280_pressure;Samples;Min_cycle;Max_cycle;Signal;HPM_P1;HPM_P2
2021/04/09 00:00:13;;;;;;;23.92;13.60;;;;;;;3.24;78.29;100988.73;1678184;83;25687;-81
2021/04/09 00:02:41;;;;;;;22.95;11.90;;;;;;;3.20;78.23;100987.77;1656586;83;25760;-81
2021/04/09 00:05:10;;;;;;;23.87;12.50;;;;;;;3.18;78.33;100983.98;1676594;83;25747;-82
2021/04/09 00:07:36;;;;;;;24.02;13.00;;;;;;;3.16;78.12;100995.34;1677828;83;25732;-82
2021/04/09 00:10:04;;;;;;;23.73;13.05;;;;;;;3.14;78.14;100995.90;1676614;83;26889;-81
2021/04/09 00:12:35;;;;;;;25.10;13.58;;;;;;;3.08;78.17;100995.84;1677406;83;25339;-82
2021/04/09 00:15:05;;;;;;;25.90;14.07;;;;;;;3.04;78.30;101000.39;1677849;83;25886;-81
2021/04/09 00:17:31;;;;;;;29.45;14.63;;;;;;;3.01;78.18;101003.64;1674009;84;25621;-81
2021/04/09 00:19:56;;;;;;;24.00;13.50;;;;;;;2.98;78.28;101002.56;1676105;84;25836;-81
2021/04/09 00:22:22;;;;;;;27.80;14.20;;;;;;;2.95;78.14;101006.16;1678675;83;34971;-81
2021/04/09 00:24:48;;;;;;;24.47;14.00;;;;;;;2.93;78.31;101007.19;1677971;83;25793;-81
2021/04/09 00:27:14;;;;;;;22.83;14.17;;;;;;;2.91;78.10;101016.31;1678162;83;25327;-81
2021/04/09 00:29:40;;;;;;;24.10;13.80;;;;;;;2.89;78.18;101012.99;1676342;83;25678;-81
2021/04/09 00:32:06;;;;;;;33.30;14.47;;;;;;;2.84;78.04;101017.66;1676871;83;25397;-81
2021/04/09 00:34:33;;;;;;;27.75;15.75;;;;;;;2.80;78.10;101015.71;1678610;83;25343;-81
2021/04/09 00:36:58;;;;;;;28.77;14.93;;;;;;;2.76;78.11;101019.43;1676018;83;25768;-81
2021/04/09 00:39:24;;;;;;;27.57;14.93;;;;;;;2.70;78.26;101014.67;1681190;83;25399;-81
2021/04/09 00:41:50;;;;;;;25.27;15.23;;;;;;;2.67;78.12;101021.29;1683011;83;25691;-81
2021/04/09 00:44:16;;;;;;;26.93;15.10;;;;;;;2.62;78.09;101024.19;1680166;83;25639;-81
2021/04/09 00:46:41;;;;;;;27.53;14.77;;;;;;;2.59;78.20;101020.52;1676811;83;34820;-81
2021/04/09 00:49:08;;;;;;;34.20;16.23;;;;;;;2.56;78.06;101021.97;1674486;83;25927;-81
2021/04/09 00:51:36;;;;;;;28.62;13.40;;;;;;;2.56;78.05;101020.67;1678261;83;25744;-81
2021/04/09 00:54:04;;;;;;;28.52;15.38;;;;;;;2.54;78.02;101022.55;1679291;83;25790;-82
2021/04/09 00:56:31;;;;;;;24.72;13.40;;;;;;;2.52;77.91;101020.98;1652497;84;25390;-81
2021/04/09 00:59:00;;;;;;;27.32;15.18;;;;;;;2.47;77.95;101019.98;1681104;83;25695;-81
2021/04/09 01:01:26;;;;;;;25.15;14.15;;;;;;;2.46;77.80;101026.55;1678154;83;25770;-81
2021/04/09 01:03:54;;;;;;;29.20;14.43;;;;;;;2.42;77.79;101028.00;1678002;83;25372;-81
2021/04/09 01:06:22;;;;;;;29.87;15.20;;;;;;;2.40;77.73;101026.44;1676305;84;25807;-81
2021/04/09 01:08:49;;;;;;;32.95;14.90;;;;;;;2.37;77.68;101025.34;1679875;83;25350;-81
2021/04/09 01:11:16;;;;;;;28.85;15.15;;;;;;;2.33;77.60;101025.18;1678463;83;25374;-81
2021/04/09 01:13:43;;;;;;;27.45;14.60;;;;;;;2.32;77.62;101024.36;1676789;83;26000;-81
2021/04/09 01:16:20;;;;;;;32.40;15.83;;;;;;;2.31;77.44;101025.73;1676171;84;25346;-81
2021/04/09 01:18:58;;;;;;;34.35;15.05;;;;;;;2.32;77.34;101023.06;1677690;83;25904;-81
2021/04/09 01:21:38;;;;;;;27.45;13.93;;;;;;;2.31;77.22;101031.71;1678379;83;25355;-81
2021/04/09 01:24:16;;;;;;;;;;;;;;;2.30;77.18;101026.20;1680763;83;25639;-81
2021/04/09 01:27:08;;;;;;;28.40;14.50;;;;;;;2.29;76.95;101028.86;1675559;84;25777;-81
2021/04/09 01:30:12;;;;;;;24.27;14.13;;;;;;;2.26;76.84;101026.47;1678910;83;25790;-81
2021/04/09 01:32:38;;;;;;;26.93;14.35;;;;;;;2.15;76.82;101012.48;1676577;83;26484;-82
2021/04/09 01:35:10;;;;;;;28.95;14.25;;;;;;;2.17;76.78;101015.80;1678104;83;25878;-81
2021/04/09 01:37:43;;;;;;;27.87;13.08;;;;;;;2.17;76.84;101022.25;1680982;83;26060;-82
2021/04/09 01:40:22;;;;;;;22.90;13.43;;;;;;;2.20;76.75;101023.34;1680705;83;25709;-81
2021/04/09 01:42:55;;;;;;;27.05;12.53;;;;;;;2.20;76.67;101019.94;1677049;83;25860;-81
2021/04/09 01:45:23;;;;;;;24.70;13.45;;;;;;;2.18;76.42;101025.65;1676430;83;25788;-81
2021/04/09 01:47:51;;;;;;;27.50;13.60;;;;;;;2.13;76.32;101019.97;1677064;83;25775;-81
2021/04/09 01:50:18;;;;;;;27.48;13.50;;;;;;;2.11;76.36;101025.68;1678448;83;25874;-81
2021/04/09 01:52:47;;;;;;;23.85;11.85;;;;;;;2.09;76.27;101022.36;1679767;83;25503;-81
2021/04/09 01:55:16;;;;;;;22.25;12.00;;;;;;;2.06;76.20;101019.97;1674033;83;25612;-81
2021/04/09 01:57:44;;;;;;;31.37;13.48;;;;;;;2.05;76.19;101023.02;1678995;83;25798;-81
2021/04/09 02:00:21;;;;;;;25.45;12.10;;;;;;;2.00;76.08;101015.55;1680926;83;25702;-81
2021/04/09 02:02:49;;;;;;;28.25;13.45;;;;;;;2.02;76.23;101012.89;1679576;83;25309;-82
2021/04/09 02:05:26;;;;;;;24.25;12.70;;;;;;;2.02;76.23;101012.89;1678111;83;25883;-82
2021/04/09 02:07:56;;;;;;;25.37;12.07;;;;;;;2.00;75.88;101014.73;1679479;83;25314;-82
2021/04/09 02:10:23;;;;;;;27.02;13.58;;;;;;;1.97;75.83;101013.63;1681853;83;25773;-82
2021/04/09 02:12:50;;;;;;;20.82;11.85;;;;;;;1.83;75.74;100989.98;1678792;83;25787;-82
2021/04/09 02:15:20;;;;;;;22.00;11.85;;;;;;;1.83;75.74;100989.98;1675828;83;25869;-82
2021/04/09 02:17:46;;;;;;;25.10;11.40;;;;;;;1.93;75.83;101011.68;1675721;84;25832;-82
2021/04/09 02:20:18;;;;;;;26.52;10.15;;;;;;;1.96;75.82;101012.81;1675095;83;25791;-82
2021/04/09 02:22:45;;;;;;;24.70;11.38;;;;;;;1.95;75.56;101007.27;1678218;83;25691;-82
2021/04/09 02:25:15;;;;;;;28.87;11.50;;;;;;;1.94;75.57;101015.11;1675295;83;25768;-82
2021/04/09 02:27:44;;;;;;;23.95;11.93;;;;;;;1.91;75.46;101010.11;1674300;83;25352;-82
2021/04/09 02:30:12;;;;;;;22.37;10.35;;;;;;;1.90;75.52;101018.31;1676960;83;25765;-82
2021/04/09 02:32:39;;;;;;;21.15;11.12;;;;;;;1.84;75.82;101000.66;1678534;83;25839;-82
2021/04/09 02:35:07;;;;;;;25.27;11.75;;;;;;;1.93;75.53;101015.55;1676601;83;25825;-82
2021/04/09 02:37:35;;;;;;;25.23;11.10;;;;;;;1.95;75.46;101024.02;1678374;83;25374;-82
2021/04/09 02:40:07;;;;;;;21.35;11.40;;;;;;;1.94;75.58;101014.64;1679033;83;25700;-82
2021/04/09 02:42:34;;;;;;;21.25;11.05;;;;;;;1.96;75.32;101012.81;1676140;83;25779;-81
2021/04/09 02:45:01;;;;;;;23.50;10.90;;;;;;;1.94;75.28;101008.66;1678827;83;25804;-81
2021/04/09 02:47:29;;;;;;;20.75;10.65;;;;;;;1.74;75.14;100989.23;1678898;83;25853;-82
2021/04/09 02:50:31;;;;;;;19.87;10.65;;;;;;;1.84;75.29;101011.42;1676619;83;25735;-82
2021/04/09 02:53:24;;;;;;;24.02;12.93;;;;;;;1.84;75.29;101011.42;1679052;83;25788;-81
2021/04/09 02:55:52;;;;;;;26.48;10.95;;;;;;;1.81;75.27;101009.86;1678689;83;25797;-80
2021/04/09 02:58:19;;;;;;;27.13;12.35;;;;;;;1.78;74.94;101011.34;1651707;84;25808;-80
2021/04/09 03:00:48;;;;;;;22.05;10.93;;;;;;;1.79;75.22;101007.83;1678338;83;25804;-80
2021/04/09 03:03:17;;;;;;;20.02;11.12;;;;;;;1.65;75.16;100991.09;1678814;83;25672;-81
2021/04/09 03:05:44;;;;;;;20.10;9.30;;;;;;;1.72;75.06;101007.84;1676407;83;25756;-81
2021/04/09 03:08:13;;;;;;;22.00;9.85;;;;;;;1.64;74.97;101009.59;1675638;84;26588;-81
2021/04/09 03:10:40;;;;;;;19.80;9.00;;;;;;;1.40;75.15;100977.09;1659920;83;25853;-81
2021/04/09 03:13:06;;;;;;;22.67;9.63;;;;;;;1.59;75.15;101009.03;1649001;84;25785;-81
2021/04/09 03:15:58;;;;;;;22.90;9.78;;;;;;;1.52;75.13;100997.42;1652327;84;25762;-81
2021/04/09 03:18:27;;;;;;;18.02;9.18;;;;;;;1.51;75.19;101008.66;1652509;84;26531;-82
2021/04/09 03:20:56;;;;;;;22.87;11.12;;;;;;;1.52;75.21;101012.87;1649966;84;25752;-82
2021/04/09 03:23:22;;;;;;;22.30;9.45;;;;;;;1.51;75.21;101012.05;1650801;84;25562;-82
2021/04/09 03:25:48;;;;;;;18.67;9.43;;;;;;;1.44;75.04;100997.86;1652072;84;25794;-81
2021/04/09 03:28:14;;;;;;;19.27;10.80;;;;;;;1.40;75.14;100996.87;1650995;84;31621;-82
2021/04/09 03:30:40;;;;;;;18.95;9.33;;;;;;;1.48;75.14;101007.55;1653569;84;25843;-82
2021/04/09 03:33:06;;;;;;;21.23;9.50;;;;;;;1.48;75.14;101007.55;1652575;84;25399;-82
2021/04/09 03:35:32;;;;;;;20.77;9.80;;;;;;;1.35;75.24;100982.97;1651673;84;25856;-82
2021/04/09 03:37:58;;;;;;;17.70;8.70;;;;;;;1.47;75.23;101002.86;1651337;84;30435;-82
2021/04/09 03:40:24;;;;;;;18.80;9.17;;;;;;;1.50;75.28;101004.40;1651781;84;31261;-81
2021/04/09 03:42:50;;;;;;;18.43;10.00;;;;;;;1.51;75.27;101009.48;1648577;84;34899;-82
2021/04/09 03:45:16;;;;;;;20.07;9.33;;;;;;;1.52;75.28;101007.72;1650685;84;25833;-82
2021/04/09 03:47:42;;;;;;;18.85;10.63;;;;;;;1.51;75.16;101006.08;1649532;84;25887;-82
2021/04/09 03:50:08;;;;;;;21.37;11.95;;;;;;;1.51;75.18;101004.33;1651483;84;25811;-82
2021/04/09 03:52:38;;;;;;;21.62;11.12;;;;;;;1.52;75.16;101001.28;1650644;84;25727;-82
2021/04/09 03:55:11;;;;;;;21.90;11.03;;;;;;;1.51;75.03;101007.37;1650035;84;31323;-82
2021/04/09 03:57:37;;;;;;;19.82;9.70;;;;;;;1.47;75.10;100999.00;1649843;84;25921;-82
2021/04/09 04:00:06;;;;;;;17.53;9.10;;;;;;;1.44;75.09;101003.02;1649513;84;25420;-81
2021/04/09 04:02:33;;;;;;;18.82;9.35;;;;;;;1.44;75.17;101000.44;1653843;84;25878;-82
2021/04/09 04:04:59;;;;;;;25.92;12.28;;;;;;;1.43;75.11;101001.38;1649513;84;27171;-82
2021/04/09 04:07:25;;;;;;;19.37;9.37;;;;;;;1.35;74.96;101005.33;1650921;84;35283;-82
2021/04/09 04:09:51;;;;;;;19.93;10.53;;;;;;;1.28;75.10;100999.69;1655939;84;25898;-82
2021/04/09 04:12:16;;;;;;;19.40;9.70;;;;;;;1.30;75.23;101001.25;1690205;83;25613;-82
2021/04/09 04:14:42;;;;;;;22.87;9.80;;;;;;;1.34;75.32;101008.36;1677390;83;33221;-82
2021/04/09 04:17:08;;;;;;;22.23;11.03;;;;;;;1.31;75.16;101004.69;1678603;83;31397;-81
2021/04/09 04:19:34;;;;;;;21.57;10.77;;;;;;;1.30;75.23;101001.72;1677280;83;34950;-82
2021/04/09 04:22:00;;;;;;;24.00;11.90;;;;;;;1.32;75.31;101004.58;1661851;84;25731;-81
2021/04/09 04:24:25;;;;;;;17.93;9.93;;;;;;;1.33;75.25;101006.69;1677088;83;25712;-82
2021/04/09 04:26:51;;;;;;;19.30;10.43;;;;;;;1.36;75.34;101002.64;1675620;83;33131;-82
2021/04/09 04:29:17;;;;;;;22.27;10.83;;;;;;;1.40;75.33;101004.59;1677742;83;31797;-81
2021/04/09 04:31:44;;;;;;;19.63;11.87;;;;;;;1.43;75.30;101008.28;1678668;83;35161;-82
2021/04/09 04:34:10;;;;;;;21.12;10.43;;;;;;;1.46;75.31;101009.38;1678887;83;25842;-82
2021/04/09 04:36:37;;;;;;;20.43;10.38;;;;;;;1.47;75.27;101013.17;1676590;84;25312;-82
2021/04/09 04:39:04;;;;;;;25.08;10.23;;;;;;;1.44;75.16;101013.32;1679677;83;26563;-81
2021/04/09 04:41:30;;;;;;;22.62;10.70;;;;;;;1.41;75.10;101005.78;1651948;84;25387;-82
2021/04/09 04:43:57;;;;;;;18.42;9.15;;;;;;;1.40;75.54;101000.73;1678035;83;25856;-81
2021/04/09 04:46:24;;;;;;;18.62;9.20;;;;;;;1.40;75.54;101000.73;1675841;84;26481;-81
2021/04/09 04:48:50;;;;;;;22.15;11.20;;;;;;;1.54;75.36;101013.16;1678100;83;25926;-82
2021/04/09 04:51:17;;;;;;;18.90;9.33;;;;;;;1.57;75.20;101017.30;1676693;83;25887;-81
2021/04/09 04:53:43;;;;;;;18.37;9.55;;;;;;;1.61;75.09;101021.80;1677865;83;25306;-82
2021/04/09 04:56:09;;;;;;;22.17;10.43;;;;;;;1.61;75.20;101014.92;1680143;83;34928;-82
2021/04/09 04:58:34;;;;;;;21.83;10.60;;;;;;;1.66;75.22;101018.50;1679623;83;25887;-81
2021/04/09 05:01:00;;;;;;;20.23;9.90;;;;;;;1.67;75.06;101015.84;1680246;83;25922;-81
2021/04/09 05:03:26;;;;;;;21.03;10.73;;;;;;;1.69;75.19;101015.73;1677566;83;31325;-81
2021/04/09 05:05:52;;;;;;;23.77;10.93;;;;;;;1.75;75.08;101024.41;1652788;83;31315;-81
2021/04/09 05:08:18;;;;;;;18.50;10.43;;;;;;;1.80;75.26;101018.52;1677449;83;34877;-82
2021/04/09 05:10:44;;;;;;;22.20;9.77;;;;;;;1.87;75.12;101018.50;1678690;83;25434;-81
2021/04/09 05:13:10;;;;;;;17.48;9.38;;;;;;;1.93;75.13;101019.41;1680497;83;25783;-81
2021/04/09 05:15:35;;;;;;;19.63;10.37;;;;;;;2.01;75.14;101022.82;1677826;83;25819;-81
2021/04/09 05:18:01;;;;;;;23.83;10.30;;;;;;;2.08;75.05;101016.84;1677125;83;31931;-82
2021/04/09 05:20:27;;;;;;;19.73;10.70;;;;;;;2.16;75.08;101018.49;1676096;83;34874;-82
2021/04/09 05:22:53;;;;;;;19.90;10.90;;;;;;;2.23;74.98;101018.00;1678041;83;25658;-82
2021/04/09 05:25:18;;;;;;;20.73;10.27;;;;;;;2.31;74.87;101017.52;1675810;83;25349;-82
2021/04/09 05:27:44;;;;;;;19.60;9.97;;;;;;;2.40;74.81;101025.14;1676096;83;33265;-82
2021/04/09 05:30:11;;;;;;;17.17;10.13;;;;;;;2.48;74.67;101024.67;1679970;83;31777;-82
2021/04/09 05:32:37;;;;;;;20.77;10.65;;;;;;;2.54;74.59;101019.97;1676115;83;25395;-82
2021/04/09 05:35:05;;;;;;;20.12;10.75;;;;;;;2.62;74.47;101019.02;1679598;83;45148;-82
2021/04/09 05:37:31;;;;;;;21.12;9.75;;;;;;;2.56;73.98;100997.92;1678630;83;25360;-82
2021/04/09 05:39:57;;;;;;;20.23;10.83;;;;;;;2.56;73.98;100997.92;1681171;83;31462;-82
2021/04/09 05:42:23;;;;;;;22.90;11.70;;;;;;;2.72;73.90;101017.13;1679636;83;28582;-81
2021/04/09 05:44:48;;;;;;;20.57;10.10;;;;;;;2.74;74.07;101008.37;1681440;83;34934;-81
2021/04/09 05:47:14;;;;;;;17.73;9.83;;;;;;;2.82;73.98;101016.45;1682106;83;25365;-81
2021/04/09 05:49:40;;;;;;;20.47;11.17;;;;;;;2.88;73.89;101016.52;1682154;83;25802;-82
2021/04/09 05:52:07;;;;;;;21.50;12.17;;;;;;;2.96;73.83;101010.39;1681718;83;25818;-82
2021/04/09 05:54:35;;;;;;;20.43;10.53;;;;;;;3.02;73.81;101014.33;1681265;83;25669;-81
2021/04/09 05:57:01;;;;;;;17.12;10.35;;;;;;;3.10;73.73;101014.66;1680275;83;25792;-81
2021/04/09 05:59:27;;;;;;;20.70;10.63;;;;;;;3.19;73.70;101020.52;1678892;83;25397;-81
2021/04/09 06:01:54;;;;;;;17.48;10.45;;;;;;;3.24;73.12;101020.20;1650041;83;26679;-81
2021/04/09 06:04:20;;;;;;;21.12;10.50;;;;;;;3.29;72.81;101029.77;1682858;83;26955;-82
2021/04/09 06:06:46;;;;;;;19.90;11.93;;;;;;;3.31;72.82;101025.34;1680767;83;31423;-81
2021/04/09 06:09:11;;;;;;;20.67;11.37;;;;;;;3.32;72.62;101026.51;1680368;83;34836;-81
2021/04/09 06:11:37;;;;;;;22.07;10.47;;;;;;;3.36;72.40;101021.16;1681016;83;25718;-81
2021/04/09 06:14:03;;;;;;;17.87;9.33;;;;;;;3.41;72.62;101019.92;1679684;83;26417;-81
2021/04/09 06:16:29;;;;;;;15.40;9.70;;;;;;;3.48;72.64;101015.98;1679259;83;25455;-81
2021/04/09 06:18:55;;;;;;;18.77;10.33;;;;;;;3.53;72.31;101015.21;1676420;83;31308;-81
2021/04/09 06:21:20;;;;;;;18.93;10.10;;;;;;;3.59;71.98;101014.44;1677273;83;34899;-81
2021/04/09 06:23:46;;;;;;;13.80;8.70;;;;;;;3.66;72.23;101012.64;1678092;83;25386;-82
2021/04/09 06:26:12;;;;;;;19.20;10.77;;;;;;;3.73;71.42;101015.62;1678241;83;25876;-81
2021/04/09 06:28:38;;;;;;;17.85;10.28;;;;;;;3.78;71.62;101011.78;1684489;83;25818;-81
2021/04/09 06:31:05;;;;;;;20.72;10.75;;;;;;;3.84;71.61;101011.01;1680427;83;26116;-77
2021/04/09 06:33:31;;;;;;;19.45;10.23;;;;;;;3.94;71.80;101014.15;1681859;83;25390;-78
2021/04/09 06:35:57;;;;;;;18.33;9.93;;;;;;;4.04;71.46;101010.47;1680689;83;25365;-78
2021/04/09 06:38:23;;;;;;;21.20;10.70;;;;;;;4.09;71.20;101006.25;1678277;83;25839;-78
2021/04/09 06:40:49;;;;;;;22.63;12.23;;;;;;;4.14;70.88;101004.99;1678245;83;26031;-78
2021/04/09 06:43:15;;;;;;;19.17;10.25;;;;;;;4.21;70.96;101001.53;1680335;83;25704;-79
2021/04/09 06:45:41;;;;;;;17.48;9.95;;;;;;;4.29;70.97;101000.99;1676511;83;25797;-78
2021/04/09 06:48:09;;;;;;;17.93;9.70;;;;;;;4.38;70.42;101001.15;1678308;83;25421;-79
2021/04/09 06:50:35;;;;;;;16.25;10.05;;;;;;;4.44;69.71;101000.70;1679345;83;25732;-81
2021/04/09 06:53:02;;;;;;;19.90;10.05;;;;;;;4.52;70.05;100998.87;1663481;83;25836;-78
2021/04/09 06:55:28;;;;;;;17.92;11.12;;;;;;;4.59;69.47;100996.20;1682306;83;25970;-82
2021/04/09 06:57:56;;;;;;;19.23;10.40;;;;;;;4.66;69.60;100997.43;1679836;83;35003;-87
2021/04/09 07:00:26;;;;;;;15.98;9.90;;;;;;;4.76;68.98;100996.28;1684590;83;25780;-81
2021/04/09 07:02:52;;;;;;;21.02;10.68;;;;;;;4.87;69.18;100988.55;1679391;83;25382;-78
2021/04/09 07:05:19;;;;;;;16.97;9.43;;;;;;;4.96;68.92;100993.98;1681370;83;25783;-78
2021/04/09 07:07:45;;;;;;;17.17;10.40;;;;;;;5.00;66.42;101000.13;1679885;83;25857;-79
2021/04/09 07:10:12;;;;;;;15.85;10.40;;;;;;;5.03;66.62;100983.54;1676820;82;25780;-81
2021/04/09 07:12:37;;;;;;;17.85;11.05;;;;;;;5.10;67.84;100984.72;1680245;83;26609;-80
2021/04/09 07:15:17;;;;;;;19.30;10.20;;;;;;;5.19;67.42;100985.34;1681223;83;25800;-79
2021/04/09 07:17:48;;;;;;;13.77;8.80;;;;;;;5.27;67.51;100979.59;1681596;83;25836;-80
2021/04/09 07:20:26;;;;;;;15.25;9.28;;;;;;;5.32;65.86;100978.31;1682535;82;25889;-80
2021/04/09 07:22:55;;;;;;;14.93;8.45;;;;;;;5.29;65.04;100980.28;1677624;83;25335;-78
2021/04/09 07:25:26;;;;;;;13.03;8.38;;;;;;;5.31;65.16;100979.70;1678380;83;26011;-79
2021/04/09 07:28:19;;;;;;;14.05;8.45;;;;;;;5.37;63.79;100976.64;1680686;83;26558;-79
2021/04/09 07:30:54;;;;;;;15.98;8.53;;;;;;;5.42;65.29;100972.41;1682831;83;26291;-79
2021/04/09 07:33:23;;;;;;;12.25;7.87;;;;;;;5.52;65.48;100970.78;1681596;83;25703;-80
2021/04/09 07:35:57;;;;;;;12.88;8.13;;;;;;;5.62;65.36;100976.07;1682836;83;25859;-80
2021/04/09 07:38:28;;;;;;;13.58;8.00;;;;;;;5.66;63.97;100974.43;1680867;83;25830;-78
2021/04/09 07:41:07;;;;;;;13.55;8.73;;;;;;;5.74;64.49;100976.44;1680029;83;25701;-81
2021/04/09 07:43:37;;;;;;;11.57;7.53;;;;;;;5.85;64.43;100962.64;1680042;83;26459;-79
2021/04/09 07:46:05;;;;;;;15.23;8.40;;;;;;;5.94;64.31;100964.06;1682682;83;26046;-79
2021/04/09 07:48:37;;;;;;;13.72;8.15;;;;;;;6.03;64.09;100961.69;1682575;83;25854;-78
2021/04/09 07:51:06;;;;;;;15.08;8.58;;;;;;;6.10;62.49;100959.80;1676583;83;26559;-82
2021/04/09 07:53:37;;;;;;;13.28;8.50;;;;;;;6.14;62.91;100959.09;1680069;83;25765;-80
2021/04/09 07:56:11;;;;;;;13.88;7.83;;;;;;;6.15;61.82;100950.36;1681196;83;25840;-83
2021/04/09 07:58:39;;;;;;;14.63;7.80;;;;;;;6.18;61.81;100944.44;1679688;83;25819;-78
2021/04/09 08:01:22;;;;;;;13.20;7.30;;;;;;;6.28;60.56;100947.14;1680388;83;25419;-76
2021/04/09 08:03:48;;;;;;;10.95;6.28;;;;;;;6.42;60.36;100939.06;1678505;83;25771;-82
2021/04/09 08:06:18;;;;;;;12.10;6.53;;;;;;;6.54;58.30;100946.32;1677024;83;25737;-81
2021/04/09 08:08:53;;;;;;;10.15;6.40;;;;;;;6.55;57.92;100941.50;1679833;83;25881;-80
2021/04/09 08:11:36;;;;;;;11.48;7.05;;;;;;;6.62;58.21;100932.72;1681095;83;25703;-83
2021/04/09 08:14:15;;;;;;;11.28;6.58;;;;;;;6.66;56.32;100935.44;1681459;83;25883;-81
2021/04/09 08:16:45;;;;;;;14.70;6.92;;;;;;;6.70;57.92;100936.81;1678211;83;25776;-81
2021/04/09 08:19:21;;;;;;;10.82;6.17;;;;;;;6.74;57.06;100925.69;1682409;83;25726;-79
2021/04/09 08:21:56;;;;;;;13.70;6.45;;;;;;;6.79;58.47;100937.38;1677078;83;25696;-77
2021/04/09 08:24:30;;;;;;;13.13;7.25;;;;;;;6.91;56.01;100925.63;1682430;83;25911;-78
2021/04/09 08:26:56;;;;;;;12.45;5.42;;;;;;;6.97;57.38;100919.91;1685895;83;25673;-75
2021/04/09 08:29:24;;;;;;;10.48;5.50;;;;;;;7.05;55.14;100911.81;1649476;83;26290;-77
2021/04/09 08:31:54;;;;;;;10.43;6.40;;;;;;;7.04;53.89;100918.45;1683544;83;25564;-78
2021/04/09 08:34:20;;;;;;;9.33;5.80;;;;;;;7.01;52.88;100912.19;1681023;83;25848;-81
2021/04/09 08:36:47;;;;;;;9.40;5.97;;;;;;;7.03;51.92;100907.20;1677581;83;25769;-81
2021/04/09 08:39:17;;;;;;;12.63;6.03;;;;;;;7.12;53.67;100904.34;1676580;83;25825;-81
2021/04/09 08:41:45;;;;;;;10.28;6.05;;;;;;;7.26;53.15;100905.29;1662082;83;25850;-76
2021/04/09 08:44:13;;;;;;;9.55;5.55;;;;;;;7.29;53.67;100895.93;1682121;83;25779;-78
2021/04/09 08:46:40;;;;;;;12.88;6.62;;;;;;;7.36;52.03;100888.41;1681226;83;25795;-81
2021/04/09 08:49:09;;;;;;;11.57;6.08;;;;;;;7.31;51.33;100890.13;1680425;83;26025;-77
2021/04/09 08:51:39;;;;;;;8.58;5.87;;;;;;;7.36;52.31;100886.30;1679170;83;25689;-78
2021/04/09 08:54:29;;;;;;;10.72;5.90;;;;;;;7.40;51.48;100885.91;1677738;83;25408;-78
2021/04/09 08:56:54;;;;;;;12.00;5.45;;;;;;;7.45;51.79;100887.64;1681228;83;25729;-77
2021/04/09 08:59:45;;;;;;;9.60;4.87;;;;;;;7.55;51.45;100877.25;1682074;83;26642;-77
2021/04/09 09:02:24;;;;;;;11.70;5.35;;;;;;;7.61;49.79;100874.59;1681387;83;25872;-77
2021/04/09 09:05:12;;;;;;;14.75;6.42;;;;;;;7.64;49.18;100873.88;1683384;83;25390;-78
2021/04/09 09:07:54;;;;;;;12.33;6.00;;;;;;;7.48;48.24;100876.16;1666038;83;26375;-78
2021/04/09 09:10:31;;;;;;;13.30;6.78;;;;;;;7.37;49.73;100870.58;1680789;83;25754;-78
2021/04/09 09:13:09;;;;;;;11.70;7.00;;;;;;;7.30;49.11;100861.64;1668378;82;25701;-78
2021/04/09 09:15:54;;;;;;;11.35;6.65;;;;;;;7.23;48.96;100863.11;1653047;84;25859;-78
2021/04/09 09:18:25;;;;;;;11.43;6.03;;;;;;;7.29;49.41;100858.23;1656349;84;25755;-77
2021/04/09 09:21:11;;;;;;;11.15;6.60;;;;;;;7.42;49.11;100846.75;1653520;84;25357;-78
2021/04/09 09:24:03;;;;;;;10.28;6.58;;;;;;;7.60;50.17;100854.75;1651073;84;25721;-81
2021/04/09 09:26:42;;;;;;;14.73;6.83;;;;;;;7.75;48.77;100854.73;1651835;84;26403;-78
2021/04/09 09:29:19;;;;;;;14.93;7.15;;;;;;;7.73;50.16;100849.64;1653708;84;26282;-76
2021/04/09 09:32:06;;;;;;;13.00;7.25;;;;;;;7.70;50.07;100845.20;1652676;84;25671;-76
2021/04/09 09:34:39;;;;;;;15.75;7.80;;;;;;;7.69;50.67;100840.94;1654861;84;25812;-79
2021/04/09 09:37:15;;;;;;;15.15;7.45;;;;;;;7.75;50.65;100828.23;1654579;84;25869;-79
2021/04/09 09:40:02;;;;;;;13.68;6.70;;;;;;;7.83;51.59;100824.11;1650351;84;25970;-79
2021/04/09 09:42:33;;;;;;;12.63;6.35;;;;;;;7.86;51.02;100818.17;1655756;84;26740;-78
2021/04/09 09:45:09;;;;;;;12.43;6.30;;;;;;;7.88;47.26;100815.42;1652744;84;25907;-79
2021/04/09 09:47:41;;;;;;;10.35;5.42;;;;;;;8.01;49.22;100819.87;1653156;84;25802;-78
2021/04/09 09:50:14;;;;;;;10.13;5.58;;;;;;;8.13;49.26;100812.28;1651185;84;25949;-79
2021/04/09 09:52:58;;;;;;;12.10;6.25;;;;;;;8.28;48.59;100819.67;1651946;83;26414;-78
2021/04/09 09:55:37;;;;;;;10.88;5.37;;;;;;;8.38;48.42;100810.07;1652607;84;25808;-77
2021/04/09 09:58:13;;;;;;;12.45;6.65;;;;;;;8.56;48.67;100809.70;1651719;84;26561;-79
2021/04/09 10:00:43;;;;;;;13.30;6.08;;;;;;;8.63;49.32;100809.98;1648266;84;25796;-79
2021/04/09 10:03:12;;;;;;;12.15;6.22;;;;;;;8.78;46.96;100807.23;1655271;84;26863;-79
2021/04/09 10:05:41;;;;;;;13.98;6.30;;;;;;;8.64;46.14;100796.79;1651021;84;25788;-78
2021/04/09 10:08:12;;;;;;;11.00;6.50;;;;;;;8.59;47.78;100802.09;1652544;84;25502;-79
2021/04/09 10:10:50;;;;;;;10.20;6.05;;;;;;;8.71;47.56;100795.76;1649214;84;25880;-80
2021/04/09 10:13:37;;;;;;;14.80;6.30;;;;;;;8.81;47.04;100783.98;1652143;84;25758;-77
2021/04/09 10:16:13;;;;;;;14.38;5.83;;;;;;;8.89;46.94;100779.72;1653235;84;25292;-78
2021/04/09 10:18:42;;;;;;;11.97;6.33;;;;;;;8.95;47.16;100783.53;1651955;84;25813;-82
2021/04/09 10:21:19;;;;;;;11.00;5.50;;;;;;;8.98;46.66;100765.48;1652070;84;25794;-78
2021/04/09 10:23:49;;;;;;;9.13;5.83;;;;;;;8.97;46.19;100771.64;1651866;84;25793;-77
2021/04/09 10:26:19;;;;;;;11.60;5.72;;;;;;;8.96;45.37;100764.80;1652718;84;26659;-77
2021/04/09 10:28:45;;;;;;;13.70;6.90;;;;;;;9.02;43.82;100748.56;1649383;84;25810;-79
2021/04/09 10:31:17;;;;;;;10.40;5.70;;;;;;;8.97;43.13;100758.61;1656613;84;26670;-80
2021/04/09 10:33:50;;;;;;;12.93;5.37;;;;;;;8.99;45.78;100744.46;1654479;84;25805;-81
2021/04/09 10:36:26;;;;;;;10.63;5.97;;;;;;;9.19;45.98;100750.38;1651307;84;25667;-79
2021/04/09 10:38:57;;;;;;;10.53;5.72;;;;;;;9.38;46.19;100740.80;1651561;84;25777;-84
2021/04/09 10:41:34;;;;;;;11.03;5.62;;;;;;;9.50;45.11;100746.16;1657004;84;25796;-80
2021/04/09 10:44:04;;;;;;;11.30;5.72;;;;;;;9.54;46.11;100733.95;1657778;84;25926;-81
2021/04/09 10:46:33;;;;;;;9.10;5.05;;;;;;;9.70;45.65;100733.77;1654350;84;26555;-80
2021/04/09 10:49:06;;;;;;;10.00;5.63;;;;;;;9.83;45.33;100730.79;1654143;84;26665;-80
2021/04/09 10:51:50;;;;;;;10.88;5.45;;;;;;;9.86;45.30;100733.91;1654469;84;25818;-75
2021/04/09 10:54:23;;;;;;;10.08;5.28;;;;;;;9.82;44.38;100731.73;1656923;84;25337;-76
2021/04/09 10:56:53;;;;;;;10.65;4.53;;;;;;;9.84;45.34;100728.50;1656527;84;25911;-77
2021/04/09 10:59:20;;;;;;;;;;;;;;;9.96;45.95;100728.61;1660261;84;25899;-76
2021/04/09 11:01:46;;;;;;;10.53;5.78;;;;;;;9.91;42.64;100720.41;1656422;84;25838;-76
2021/04/09 11:04:15;;;;;;;11.67;6.27;;;;;;;9.72;42.64;100731.84;1655903;84;33999;-78
2021/04/09 11:06:55;;;;;;;13.25;5.72;;;;;;;9.62;43.24;100724.07;1653386;84;25828;-78
2021/04/09 11:09:22;;;;;;;11.90;6.97;;;;;;;9.68;41.35;100727.38;1654081;84;25708;-77
2021/04/09 11:11:48;;;;;;;10.88;6.00;;;;;;;9.56;41.25;100726.80;1649026;84;25788;-78
2021/04/09 11:14:19;;;;;;;10.17;5.40;;;;;;;9.59;43.52;100707.91;1678629;83;26027;-79
2021/04/09 11:16:57;;;;;;;14.55;6.67;;;;;;;9.66;42.60;100707.66;1680103;83;25750;-78
2021/04/09 11:19:32;;;;;;;11.12;7.12;;;;;;;9.74;44.57;100709.84;1678465;83;25973;-80
2021/04/09 11:22:01;;;;;;;12.80;6.12;;;;;;;9.94;45.24;100711.78;1677976;83;25811;-79
2021/04/09 11:24:35;;;;;;;13.20;6.95;;;;;;;10.04;44.07;100695.19;1674319;84;32311;-79
2021/04/09 11:27:06;;;;;;;14.90;6.67;;;;;;;10.11;44.42;100689.69;1675468;84;25812;-79
2021/04/09 11:29:33;;;;;;;14.23;5.58;;;;;;;10.15;40.98;100700.99;1673842;83;26571;-79
2021/04/09 11:32:21;;;;;;;9.00;5.53;;;;;;;10.03;41.17;100692.25;1677447;83;25810;-78
2021/04/09 11:34:51;;;;;;;10.50;6.00;;;;;;;9.95;40.60;100685.98;1678657;83;26477;-81